createdAt,value
2022-07-29T00:00:02.435Z,98462.78
2022-07-29T00:02:29.469Z,98466.81
2022-07-29T00:04:56.532Z,98471.47
2022-07-29T00:07:23.393Z,98466.81
2022-07-29T00:09:52.129Z,98470.75
2022-07-29T00:12:26.765Z,98465.97
2022-07-29T00:14:56.661Z,98469.22
2022-07-29T00:17:25.242Z,98470.44
2022-07-29T00:19:52.761Z,98475.97
2022-07-29T00:22:21.262Z,98472.03
2022-07-29T00:24:51.200Z,98462.56
2022-07-29T00:27:19.036Z,98465.69
2022-07-29T00:29:46.587Z,98464.09
2022-07-29T00:32:13.570Z,98459.41
2022-07-29T00:34:59.792Z,98458.94
2022-07-29T00:37:26.810Z,98457.75
2022-07-29T00:39:53.652Z,98454.22
2022-07-29T00:42:20.858Z,98460.09
2022-07-29T00:44:47.915Z,98447.81
2022-07-29T00:47:15.073Z,98447.41
2022-07-29T00:49:43.199Z,98438.31
2022-07-29T00:52:11.814Z,98439.91
2022-07-29T00:54:44.240Z,98439.91
2022-07-29T00:57:12.844Z,98444.59
2022-07-29T00:59:40.416Z,98438.31
2022-07-29T01:02:07.650Z,98438.31
2022-07-29T01:04:34.941Z,98437.44
2022-07-29T01:07:06.120Z,98437.03
2022-07-29T01:09:43.187Z,98442.94
2022-07-29T01:12:25.816Z,98437.44
2022-07-29T01:14:55.784Z,98435.91
2022-07-29T01:17:39.285Z,98427.25
2022-07-29T01:21:12.895Z,98434.78
2022-07-29T01:24:28.654Z,98435.91
2022-07-29T01:27:33.654Z,98437.84
2022-07-29T01:30:05.186Z,98436.25
2022-07-29T01:32:40.147Z,98441.81
2022-07-29T01:35:33.614Z,98438.31
2022-07-29T01:38:25.947Z,98448.88
2022-07-29T01:40:59.907Z,98445.41
2022-07-29T01:43:41.071Z,98445.81
2022-07-29T01:46:15.992Z,98444.75
2022-07-29T01:48:58.381Z,98443.88
2022-07-29T01:52:01.258Z,98445.28
2022-07-29T01:54:38.222Z,98446.06
2022-07-29T01:57:09.214Z,98449.88
2022-07-29T01:59:38.183Z,98445.94
2022-07-29T02:02:09.660Z,98438.06
2022-07-29T02:04:40.143Z,98443.59
2022-07-29T02:07:14.242Z,98449.81
2022-07-29T02:09:43.399Z,98445.75
2022-07-29T02:12:12.725Z,98444.53
2022-07-29T02:14:54.542Z,98451.13
2022-07-29T02:17:29.086Z,98455.88
2022-07-29T02:20:01.612Z,98447.97
2022-07-29T02:22:34.473Z,98450.50
2022-07-29T02:25:02.058Z,98461.13
2022-07-29T02:27:34.376Z,98466.28
2022-07-29T02:30:05.281Z,98465.88
2022-07-29T02:32:36.420Z,98459.56
2022-07-29T02:35:05.318Z,98454.44
2022-07-29T02:37:33.206Z,98459.13
2022-07-29T02:40:00.816Z,98462.22
2022-07-29T02:42:29.425Z,98465.31
2022-07-29T02:44:57.334Z,98466.56
2022-07-29T02:47:43.692Z,98464.56
2022-07-29T02:50:21.050Z,98464.06
2022-07-29T02:53:14.146Z,98461.25
2022-07-29T02:56:01.547Z,98466.81
2022-07-29T02:58:31.677Z,98460.81
2022-07-29T03:01:04.131Z,98464.38
2022-07-29T03:03:38.626Z,98463.25
2022-07-29T03:06:08.246Z,98462.81
2022-07-29T03:08:36.580Z,98459.66
2022-07-29T03:11:05.647Z,98456.97
2022-07-29T03:13:33.097Z,98458.03
2022-07-29T03:16:01.193Z,98465.88
2022-07-29T03:18:28.553Z,98461.25
2022-07-29T03:20:56.051Z,98460.19
2022-07-29T03:23:24.935Z,98459.47
2022-07-29T03:25:52.491Z,98458.94
2022-07-29T03:28:20.416Z,98454.53
2022-07-29T03:30:50.080Z,98448.34
2022-07-29T03:33:17.809Z,98454.63
2022-07-29T03:35:44.704Z,98448.66
2022-07-29T03:38:11.728Z,98454.34
2022-07-29T03:40:58.452Z,98443.38
2022-07-29T03:43:31.615Z,98450.00
2022-07-29T03:46:01.251Z,98450.16
2022-07-29T03:48:33.856Z,98447.44
2022-07-29T03:51:01.257Z,98453.44
2022-07-29T03:53:28.858Z,98460.88
2022-07-29T03:56:01.489Z,98459.59
2022-07-29T03:58:31.435Z,98456.72
2022-07-29T04:00:59.723Z,98450.38
2022-07-29T04:03:27.042Z,98453.03
2022-07-29T04:06:06.781Z,98459.78
2022-07-29T04:08:36.644Z,98463.34
2022-07-29T04:11:05.803Z,98461.41
2022-07-29T04:13:33.721Z,98465.03
2022-07-29T04:16:00.729Z,98468.19
2022-07-29T04:18:28.653Z,98461.94
2022-07-29T04:20:55.651Z,98465.09
2022-07-29T04:23:22.526Z,98468.91
2022-07-29T04:25:49.353Z,98477.06
2022-07-29T04:28:16.215Z,98476.66
2022-07-29T04:30:44.012Z,98477.81
2022-07-29T04:33:11.142Z,98472.19
2022-07-29T04:35:38.990Z,98478.06
2022-07-29T04:38:17.203Z,98484.28
2022-07-29T04:40:44.419Z,98479.50
2022-07-29T04:43:13.161Z,98479.00
2022-07-29T04:45:41.349Z,98483.66
2022-07-29T04:48:08.567Z,98481.81
2022-07-29T04:50:38.039Z,98488.16
2022-07-29T04:53:04.898Z,98483.22
2022-07-29T04:55:31.949Z,98486.09
2022-07-29T04:57:58.814Z,98496.63
2022-07-29T05:00:28.119Z,98482.72
2022-07-29T05:03:01.056Z,98488.81
2022-07-29T05:05:29.123Z,98497.53
2022-07-29T05:07:56.366Z,98491.59
2022-07-29T05:10:23.685Z,98498.03
2022-07-29T05:12:50.530Z,98491.88
2022-07-29T05:15:18.500Z,98503.78
2022-07-29T05:17:45.624Z,98492.50
2022-07-29T05:20:12.819Z,98492.59
2022-07-29T05:22:39.634Z,98500.88
2022-07-29T05:25:09.135Z,98505.72
2022-07-29T05:27:37.752Z,98498.72
2022-07-29T05:30:05.294Z,98510.16
2022-07-29T05:32:32.737Z,98510.19
2022-07-29T05:34:59.625Z,98514.22
2022-07-29T05:37:26.671Z,98513.88
2022-07-29T05:39:57.068Z,98515.84
2022-07-29T05:42:25.985Z,98509.22
2022-07-29T05:44:55.020Z,98512.84
2022-07-29T05:47:23.070Z,98516.31
2022-07-29T05:49:50.118Z,98524.31
2022-07-29T05:52:17.014Z,98524.81
2022-07-29T05:54:44.442Z,98516.50
2022-07-29T05:57:23.018Z,98522.09
2022-07-29T05:59:51.128Z,98522.59
2022-07-29T06:02:19.042Z,98534.06
2022-07-29T06:04:46.053Z,98532.94
2022-07-29T06:07:13.055Z,98536.88
2022-07-29T06:09:40.062Z,98538.88
2022-07-29T06:12:06.998Z,98547.28
2022-07-29T06:14:33.894Z,98543.84
2022-07-29T06:17:00.935Z,98546.25
2022-07-29T06:19:28.097Z,98545.44
2022-07-29T06:21:55.081Z,98545.44
2022-07-29T06:24:22.285Z,98546.63
2022-07-29T06:26:49.322Z,98547.09
2022-07-29T06:29:16.228Z,98550.28
2022-07-29T06:31:43.174Z,98545.56
2022-07-29T06:34:11.143Z,98547.09
2022-07-29T06:36:39.739Z,98556.22
2022-07-29T06:39:09.071Z,98558.28
2022-07-29T06:41:36.587Z,98556.00
2022-07-29T06:44:03.892Z,98557.66
2022-07-29T06:46:30.959Z,98560.00
2022-07-29T06:48:57.999Z,98552.06
2022-07-29T06:51:24.992Z,98552.91
2022-07-29T06:53:59.037Z,98556.53
2022-07-29T06:56:39.073Z,98560.16
2022-07-29T06:59:08.922Z,98564.16
2022-07-29T07:01:39.224Z,98562.22
2022-07-29T07:04:06.547Z,98569.00
2022-07-29T07:06:33.443Z,98566.72
2022-07-29T07:09:00.929Z,98566.44
2022-07-29T07:11:28.271Z,98577.97
2022-07-29T07:13:59.275Z,98575.63
2022-07-29T07:16:29.408Z,98589.09
2022-07-29T07:18:56.240Z,98587.56
2022-07-29T07:21:23.390Z,98582.00
2022-07-29T07:23:50.361Z,98582.41
2022-07-29T07:26:17.204Z,98583.63
2022-07-29T07:28:44.200Z,98581.28
2022-07-29T07:31:12.279Z,98582.44
2022-07-29T07:33:39.251Z,98580.50
2022-07-29T07:36:06.218Z,98588.84
2022-07-29T07:38:33.070Z,98588.97
2022-07-29T07:41:01.099Z,98589.81
2022-07-29T07:43:28.065Z,98584.69
2022-07-29T07:45:55.024Z,98582.28
2022-07-29T07:48:21.972Z,98584.66
2022-07-29T07:50:50.303Z,98579.94
2022-07-29T07:53:17.398Z,98576.00
2022-07-29T07:56:10.519Z,98577.25
2022-07-29T07:58:32.461Z,98576.44
2022-07-29T08:00:59.593Z,98573.63
2022-07-29T08:03:26.486Z,98590.66
2022-07-29T08:05:55.159Z,98576.81
2022-07-29T08:08:22.251Z,98581.59
2022-07-29T08:10:56.642Z,98582.75
2022-07-29T08:13:28.200Z,98581.19
2022-07-29T08:16:02.715Z,98582.38
2022-07-29T08:18:32.329Z,98579.56
2022-07-29T08:21:00.123Z,98587.88
2022-07-29T08:23:51.643Z,98584.69
2022-07-29T08:26:23.465Z,98592.13
2022-07-29T08:28:51.701Z,98586.09
2022-07-29T08:31:19.080Z,98599.91
2022-07-29T08:33:46.115Z,98601.03
2022-07-29T08:36:13.978Z,98594.63
2022-07-29T08:38:41.011Z,98595.34
2022-07-29T08:41:08.175Z,98598.81
2022-07-29T08:43:38.199Z,98595.94
2022-07-29T08:46:05.546Z,98595.06
2022-07-29T08:48:33.424Z,98606.00
2022-07-29T08:51:02.509Z,98594.44
2022-07-29T08:53:32.992Z,98595.38
2022-07-29T08:56:02.979Z,98595.47
2022-07-29T08:58:36.831Z,98599.00
2022-07-29T09:01:05.744Z,98598.13
2022-07-29T09:03:38.208Z,98599.53
2022-07-29T09:06:05.878Z,98607.66
2022-07-29T09:08:34.931Z,98605.03
2022-07-29T09:11:04.584Z,98611.13
2022-07-29T09:13:32.596Z,98607.66
2022-07-29T09:15:59.714Z,98606.44
2022-07-29T09:18:45.661Z,98610.25
2022-07-29T09:21:35.436Z,98604.34
2022-07-29T09:24:11.150Z,98596.63
2022-07-29T09:26:47.746Z,98590.34
2022-07-29T09:29:25.710Z,98587.84
2022-07-29T09:31:56.289Z,98588.59
2022-07-29T09:34:32.160Z,98588.47
2022-07-29T09:36:59.457Z,98585.06
2022-07-29T09:39:35.228Z,98589.66
2022-07-29T09:42:06.267Z,98583.88
2022-07-29T09:44:49.441Z,98576.31
2022-07-29T09:47:18.974Z,98577.66
2022-07-29T09:49:58.986Z,98576.28
2022-07-29T09:52:31.028Z,98576.25
2022-07-29T09:55:10.189Z,98584.34
2022-07-29T09:57:41.016Z,98575.91
2022-07-29T10:00:10.492Z,98582.19
2022-07-29T10:02:39.582Z,98587.53
2022-07-29T10:05:26.399Z,98581.50
2022-07-29T10:07:59.439Z,98581.63
2022-07-29T10:10:34.811Z,98578.19
2022-07-29T10:13:13.417Z,98582.31
2022-07-29T10:15:46.260Z,98574.97
2022-07-29T10:18:15.420Z,98577.22
2022-07-29T10:20:42.535Z,98589.53
2022-07-29T10:23:10.704Z,98583.16
2022-07-29T10:25:37.808Z,98570.47
2022-07-29T10:28:07.113Z,98577.63
2022-07-29T10:30:34.506Z,98568.34
2022-07-29T10:33:49.500Z,98574.69
2022-07-29T10:36:55.579Z,98568.06
2022-07-29T10:40:29.044Z,98570.38
2022-07-29T10:43:03.770Z,98578.03
2022-07-29T10:45:31.497Z,98580.41
2022-07-29T10:48:07.860Z,98572.25
2022-07-29T10:51:03.948Z,98561.75
2022-07-29T10:53:54.147Z,98569.38
2022-07-29T10:56:31.011Z,98564.22
2022-07-29T10:59:22.740Z,98561.53
2022-07-29T11:01:54.408Z,98561.63
2022-07-29T11:04:44.515Z,98566.88
2022-07-29T11:07:13.145Z,98565.09
2022-07-29T11:09:42.468Z,98566.91
2022-07-29T11:12:48.291Z,98557.47
2022-07-29T11:15:19.611Z,98554.22
2022-07-29T11:17:59.676Z,98554.19
2022-07-29T11:20:50.930Z,98553.50
2022-07-29T11:23:26.036Z,98558.50
2022-07-29T11:26:18.628Z,98552.88
2022-07-29T11:29:14.882Z,98545.50
2022-07-29T11:31:49.923Z,98547.03
2022-07-29T11:34:33.461Z,98551.53
2022-07-29T11:37:09.975Z,98545.94
2022-07-29T11:39:44.511Z,98543.81
2022-07-29T11:42:28.210Z,98552.41
2022-07-29T11:45:42.759Z,98554.38
2022-07-29T11:48:29.566Z,98559.31
2022-07-29T11:51:00.042Z,98556.00
2022-07-29T11:53:28.951Z,98550.13
2022-07-29T11:56:02.539Z,98558.78
2022-07-29T11:58:31.863Z,98550.06
2022-07-29T12:01:04.137Z,98547.69
2022-07-29T12:03:36.685Z,98536.47
2022-07-29T12:09:07.409Z,98549.13
2022-07-29T12:11:38.375Z,98546.75
2022-07-29T12:14:07.009Z,98549.94
2022-07-29T12:16:40.935Z,98549.91
2022-07-29T12:19:08.045Z,98547.53
2022-07-29T12:21:56.619Z,98553.88
2022-07-29T12:24:26.741Z,98555.69
2022-07-29T12:26:58.162Z,98552.66
2022-07-29T12:29:41.994Z,98552.84
2022-07-29T12:32:19.781Z,98551.13
2022-07-29T12:34:47.624Z,98547.34
2022-07-29T12:37:14.680Z,98551.75
2022-07-29T12:39:41.647Z,98546.19
2022-07-29T12:42:18.663Z,98550.91
2022-07-29T12:44:50.579Z,98542.72
2022-07-29T12:47:19.430Z,98550.59
2022-07-29T12:49:50.395Z,98546.59
2022-07-29T12:52:34.838Z,98542.13
2022-07-29T12:55:02.419Z,98550.41
2022-07-29T12:57:29.585Z,98557.75
2022-07-29T13:00:13.950Z,98557.41
2022-07-29T13:02:43.493Z,98555.28
2022-07-29T13:05:13.696Z,98552.13
2022-07-29T13:07:54.621Z,98559.13
2022-07-29T13:10:24.897Z,98558.06
2022-07-29T13:13:11.859Z,98571.78
2022-07-29T13:15:44.868Z,98572.63
2022-07-29T13:18:32.943Z,98576.88
2022-07-29T13:21:14.280Z,98572.00
2022-07-29T13:23:42.371Z,98574.31
2022-07-29T13:26:12.477Z,98568.09
2022-07-29T13:29:10.782Z,98574.44
2022-07-29T13:31:37.857Z,98573.94
2022-07-29T13:34:04.832Z,98566.81
2022-07-29T13:36:31.632Z,98583.22
2022-07-29T13:38:58.574Z,98579.59
2022-07-29T13:41:25.960Z,98579.41
2022-07-29T13:43:52.869Z,98575.84
2022-07-29T13:46:19.715Z,98580.41
2022-07-29T13:48:46.670Z,98581.28
2022-07-29T13:51:14.006Z,98568.66
2022-07-29T13:53:40.991Z,98573.31
2022-07-29T13:56:08.164Z,98578.78
2022-07-29T13:58:35.705Z,98575.19
2022-07-29T14:01:02.901Z,98563.72
2022-07-29T14:03:30.071Z,98577.03
2022-07-29T14:05:57.304Z,98577.22
2022-07-29T14:08:24.315Z,98570.84
2022-07-29T14:10:51.324Z,98574.34
2022-07-29T14:13:24.679Z,98572.41
2022-07-29T14:15:52.892Z,98575.66
2022-07-29T14:18:19.899Z,98565.75
2022-07-29T14:20:48.292Z,98577.59
2022-07-29T14:23:16.269Z,98568.94
2022-07-29T14:25:43.556Z,98574.31
2022-07-29T14:28:11.546Z,98562.44
2022-07-29T14:30:40.867Z,98562.78
2022-07-29T14:33:09.161Z,98562.34
2022-07-29T14:35:36.067Z,98566.72
2022-07-29T14:38:03.456Z,98564.75
2022-07-29T14:40:30.565Z,98567.72
2022-07-29T14:42:57.427Z,98573.47
2022-07-29T14:45:25.750Z,98572.25
2022-07-29T14:47:56.352Z,98571.53
2022-07-29T14:50:31.967Z,98568.06
2022-07-29T14:53:00.916Z,98573.47
2022-07-29T14:55:28.194Z,98572.41
2022-07-29T14:58:05.834Z,98564.19
2022-07-29T15:00:37.677Z,98564.84
2022-07-29T15:03:05.992Z,98572.75
2022-07-29T15:05:33.507Z,98563.63
2022-07-29T15:08:30.774Z,98566.22
2022-07-29T15:11:00.196Z,98565.00
2022-07-29T15:13:27.426Z,98569.09
2022-07-29T15:15:59.712Z,98571.31
2022-07-29T15:18:26.991Z,98570.53
2022-07-29T15:20:53.923Z,98569.59
2022-07-29T15:23:21.152Z,98562.84
2022-07-29T15:25:48.124Z,98560.50
2022-07-29T15:28:15.076Z,98567.31
2022-07-29T15:30:42.003Z,98559.09
2022-07-29T15:33:10.503Z,98567.97
2022-07-29T15:35:40.534Z,98563.94
2022-07-29T15:38:09.732Z,98571.75
2022-07-29T15:40:41.159Z,98566.97
2022-07-29T15:43:08.741Z,98575.06
2022-07-29T15:46:02.773Z,98583.44
2022-07-29T15:48:30.107Z,98587.34
2022-07-29T15:50:56.954Z,98586.75
2022-07-29T15:53:24.205Z,98584.41
2022-07-29T15:55:51.073Z,98584.09
2022-07-29T15:58:18.340Z,98578.25
2022-07-29T16:00:45.326Z,98574.66
2022-07-29T16:03:12.575Z,98568.66
2022-07-29T16:05:39.559Z,98565.56
2022-07-29T16:08:06.713Z,98570.97
2022-07-29T16:10:34.147Z,98571.69
2022-07-29T16:13:01.017Z,98569.88
2022-07-29T16:15:27.973Z,98563.69
2022-07-29T16:17:54.895Z,98571.13
2022-07-29T16:20:22.352Z,98552.25
2022-07-29T16:22:49.898Z,98566.09
2022-07-29T16:25:17.324Z,98560.03
2022-07-29T16:27:44.278Z,98554.09
2022-07-29T16:30:12.060Z,98556.44
2022-07-29T16:32:40.189Z,98547.78
2022-07-29T16:35:08.848Z,98541.72
2022-07-29T16:37:39.632Z,98551.72
2022-07-29T16:40:12.002Z,98550.47
2022-07-29T16:42:47.905Z,98558.06
2022-07-29T16:45:18.312Z,98562.06
2022-07-29T16:47:48.414Z,98561.84
2022-07-29T16:50:15.315Z,98552.03
2022-07-29T16:52:42.219Z,98560.31
2022-07-29T16:55:09.836Z,98560.47
2022-07-29T16:57:36.771Z,98559.28
2022-07-29T17:00:06.488Z,98558.50
2022-07-29T17:02:33.294Z,98552.72
2022-07-29T17:05:00.153Z,98555.22
2022-07-29T17:07:29.737Z,98554.00
2022-07-29T17:10:00.615Z,98554.88
2022-07-29T17:12:34.269Z,98554.13
2022-07-29T17:15:01.303Z,98558.50
2022-07-29T17:17:38.645Z,98565.72
2022-07-29T17:20:09.538Z,98559.31
2022-07-29T17:22:39.787Z,98556.09
2022-07-29T17:25:08.642Z,98557.78
2022-07-29T17:27:36.111Z,98560.94
2022-07-29T17:30:05.708Z,98556.94
2022-07-29T17:32:40.002Z,98552.72
2022-07-29T17:35:35.745Z,98553.44
2022-07-29T17:38:02.691Z,98567.38
2022-07-29T17:40:29.738Z,98561.22
2022-07-29T17:42:56.614Z,98567.69
2022-07-29T17:45:23.727Z,98564.44
2022-07-29T17:47:51.019Z,98561.69
2022-07-29T17:50:18.054Z,98565.28
2022-07-29T17:52:57.792Z,98570.84
2022-07-29T17:55:25.030Z,98568.09
2022-07-29T17:57:52.031Z,98576.03
2022-07-29T18:00:19.440Z,98560.53
2022-07-29T18:02:46.431Z,98570.88
2022-07-29T18:05:13.459Z,98573.28
2022-07-29T18:07:40.887Z,98578.94
2022-07-29T18:10:08.459Z,98575.31
2022-07-29T18:12:35.366Z,98577.38
2022-07-29T18:15:02.286Z,98571.47
2022-07-29T18:17:52.975Z,98580.72
2022-07-29T18:20:16.173Z,98586.75
2022-07-29T18:22:42.964Z,98584.78
2022-07-29T18:25:09.894Z,98584.81
2022-07-29T18:27:36.735Z,98582.53
2022-07-29T18:30:06.354Z,98588.94
2022-07-29T18:32:33.608Z,98587.34
2022-07-29T18:35:05.128Z,98586.97
2022-07-29T18:38:00.293Z,98583.44
2022-07-29T18:40:25.744Z,98589.00
2022-07-29T18:42:53.071Z,98592.25
2022-07-29T18:45:20.055Z,98589.16
2022-07-29T18:47:49.246Z,98587.63
2022-07-29T18:50:17.084Z,98581.72
2022-07-29T18:52:46.239Z,98594.81
2022-07-29T18:55:13.837Z,98592.88
2022-07-29T18:57:54.889Z,98598.94
2022-07-29T19:00:24.173Z,98603.75
2022-07-29T19:02:51.534Z,98604.97
2022-07-29T19:05:18.833Z,98602.63
2022-07-29T19:07:45.732Z,98606.22
2022-07-29T19:10:13.511Z,98608.63
2022-07-29T19:12:40.550Z,98607.06
2022-07-29T19:15:10.283Z,98608.69
2022-07-29T19:17:37.861Z,98611.13
2022-07-29T19:20:06.339Z,98619.94
2022-07-29T19:22:34.814Z,98625.97
2022-07-29T19:25:01.767Z,98626.47
2022-07-29T19:27:28.786Z,98630.88
2022-07-29T19:29:59.150Z,98636.47
2022-07-29T19:32:27.113Z,98634.47
2022-07-29T19:35:12.547Z,98641.25
2022-07-29T19:37:39.600Z,98644.03
2022-07-29T19:40:07.366Z,98645.66
2022-07-29T19:42:34.738Z,98643.69
2022-07-29T19:45:01.667Z,98648.84
2022-07-29T19:47:28.760Z,98650.81
2022-07-29T19:49:55.814Z,98653.63
2022-07-29T19:52:22.702Z,98654.00
2022-07-29T19:54:49.602Z,98654.41
2022-07-29T19:57:16.487Z,98655.59
2022-07-29T19:59:44.260Z,98653.22
2022-07-29T20:02:12.413Z,98658.00
2022-07-29T20:04:39.779Z,98653.25
2022-07-29T20:07:07.659Z,98659.19
2022-07-29T20:09:35.550Z,98658.38
2022-07-29T20:12:06.063Z,98656.75
2022-07-29T20:14:32.873Z,98656.75
2022-07-29T20:17:00.157Z,98655.53
2022-07-29T20:19:27.473Z,98657.13
2022-07-29T20:21:57.442Z,98649.59
2022-07-29T20:24:24.578Z,98655.53
2022-07-29T20:26:51.772Z,98651.94
2022-07-29T20:29:18.670Z,98655.50
2022-07-29T20:31:46.314Z,98649.53
2022-07-29T20:34:20.234Z,98642.81
2022-07-29T20:36:49.318Z,98649.16
2022-07-29T20:39:16.312Z,98639.63
2022-07-29T20:41:43.245Z,98641.19
2022-07-29T20:44:10.206Z,98639.22
2022-07-29T20:46:39.243Z,98636.44
2022-07-29T20:49:06.307Z,98636.44
2022-07-29T20:51:43.692Z,98628.53
2022-07-29T20:54:11.522Z,98639.19
2022-07-29T20:56:39.477Z,98641.53
2022-07-29T20:59:06.565Z,98642.22
2022-07-29T21:01:33.628Z,98651.25
2022-07-29T21:04:02.993Z,98646.50
2022-07-29T21:06:31.834Z,98654.00
2022-07-29T21:08:59.732Z,98653.13
2022-07-29T21:11:43.265Z,98650.72
2022-07-29T21:14:23.148Z,98645.59
2022-07-29T21:16:50.284Z,98644.41
2022-07-29T21:19:17.310Z,98651.53
2022-07-29T21:21:44.250Z,98663.38
2022-07-29T21:24:12.251Z,98663.28
2022-07-29T21:26:39.262Z,98666.41
2022-07-29T21:29:06.118Z,98665.66
2022-07-29T21:31:33.175Z,98664.00
2022-07-29T21:34:00.077Z,98666.72
2022-07-29T21:39:13.871Z,98673.28
2022-07-29T21:41:40.674Z,98685.13
2022-07-29T21:44:07.570Z,98681.56
2022-07-29T21:46:36.371Z,98682.81
2022-07-29T21:49:03.898Z,98692.34
2022-07-29T21:51:31.047Z,98696.72
2022-07-29T21:53:58.216Z,98703.84
2022-07-29T21:56:27.484Z,98703.09
2022-07-29T21:58:56.142Z,98712.59
2022-07-29T22:01:24.074Z,98707.47
2022-07-29T22:03:51.079Z,98712.97
2022-07-29T22:06:18.488Z,98722.75
2022-07-29T22:08:45.994Z,98722.66
2022-07-29T22:11:13.556Z,98721.78
2022-07-29T22:13:40.665Z,98714.13
2022-07-29T22:16:10.117Z,98725.44
2022-07-29T22:18:36.951Z,98720.34
2022-07-29T22:21:04.005Z,98727.13
2022-07-29T22:23:31.098Z,98726.63
2022-07-29T22:25:58.054Z,98721.41
2022-07-29T22:28:25.037Z,98730.47
2022-07-29T22:30:52.044Z,98726.00
2022-07-29T22:33:18.987Z,98724.00
2022-07-29T22:35:48.986Z,98726.31
2022-07-29T22:38:18.107Z,98724.72
2022-07-29T22:40:45.113Z,98723.22
2022-07-29T22:43:12.334Z,98726.72
2022-07-29T22:45:39.296Z,98718.44
2022-07-29T22:48:06.472Z,98731.09
2022-07-29T22:50:33.858Z,98734.69
2022-07-29T22:53:00.714Z,98732.06
2022-07-29T22:55:27.906Z,98728.63
2022-07-29T22:57:54.824Z,98731.84
2022-07-29T23:00:21.977Z,98742.50
2022-07-29T23:02:49.166Z,98736.97
2022-07-29T23:05:16.380Z,98740.09
2022-07-29T23:07:43.441Z,98740.34
2022-07-29T23:10:10.673Z,98743.75
2022-07-29T23:12:37.896Z,98746.97
2022-07-29T23:15:06.724Z,98747.53
2022-07-29T23:17:36.306Z,98750.38
2022-07-29T23:20:07.644Z,98761.50
2022-07-29T23:22:35.970Z,98772.94
2022-07-29T23:25:04.032Z,98779.06
2022-07-29T23:27:30.986Z,98783.69
2022-07-29T23:29:57.918Z,98786.09
2022-07-29T23:32:24.887Z,98786.47
2022-07-29T23:34:51.808Z,98775.13
2022-07-29T23:37:18.697Z,98777.00
2022-07-29T23:39:45.600Z,98778.94
2022-07-29T23:42:12.685Z,98779.25
2022-07-29T23:44:39.596Z,98783.19
2022-07-29T23:47:06.610Z,98788.25
2022-07-29T23:49:34.278Z,98796.66
2022-07-29T23:52:01.248Z,98802.25
2022-07-29T23:54:28.252Z,98798.75
2022-07-29T23:56:57.512Z,98802.28
2022-07-29T23:59:25.202Z,98806.28
